sensor_id;sensor_type;location;lat;lon;timestamp;temperature;humidity
1996;DHT22;38556;47.068;15.408;2023-07-29T00:01:02;23.00;99.90
1996;DHT22;38556;47.068;15.408;2023-07-29T00:03:30;23.00;99.90
1996;DHT22;38556;47.068;15.408;2023-07-29T00:05:57;23.00;99.90
1996;DHT22;38556;47.068;15.408;2023-07-29T00:08:24;22.90;99.90
1996;DHT22;38556;47.068;15.408;2023-07-29T00:10:52;22.80;99.90
1996;DHT22;38556;47.068;15.408;2023-07-29T00:13:19;22.60;99.90
1996;DHT22;38556;47.068;15.408;2023-07-29T00:15:48;22.50;99.90
1996;DHT22;38556;47.068;15.408;2023-07-29T00:18:15;22.30;99.90
1996;DHT22;38556;47.068;15.408;2023-07-29T00:20:42;22.40;99.90
1996;DHT22;38556;47.068;15.408;2023-07-29T00:23:10;22.50;99.90
1996;DHT22;38556;47.068;15.408;2023-07-29T00:25:37;22.70;99.90
1996;DHT22;38556;47.068;15.408;2023-07-29T00:28:04;22.70;99.90
1996;DHT22;38556;47.068;15.408;2023-07-29T00:30:31;22.80;99.90
1996;DHT22;38556;47.068;15.408;2023-07-29T00:33:00;22.90;99.90
1996;DHT22;38556;47.068;15.408;2023-07-29T00:35:27;22.90;99.90
1996;DHT22;38556;47.068;15.408;2023-07-29T00:37:54;22.80;99.90
1996;DHT22;38556;47.068;15.408;2023-07-29T00:40:22;22.80;99.90
1996;DHT22;38556;47.068;15.408;2023-07-29T00:42:50;22.90;99.90
1996;DHT22;38556;47.068;15.408;2023-07-29T00:45:17;22.90;99.90
1996;DHT22;38556;47.068;15.408;2023-07-29T00:47:45;22.90;99.90
1996;DHT22;38556;47.068;15.408;2023-07-29T00:50:15;22.90;99.90
1996;DHT22;38556;47.068;15.408;2023-07-29T00:52:43;22.90;99.90
1996;DHT22;38556;47.068;15.408;2023-07-29T00:55:10;22.90;99.90
1996;DHT22;38556;47.068;15.408;2023-07-29T00:57:38;22.90;99.90
1996;DHT22;38556;47.068;15.408;2023-07-29T01:00:06;22.90;99.90
1996;DHT22;38556;47.068;15.408;2023-07-29T01:02:35;22.90;99.90
1996;DHT22;38556;47.068;15.408;2023-07-29T01:05:02;22.70;99.90
1996;DHT22;38556;47.068;15.408;2023-07-29T01:07:36;22.70;99.90
1996;DHT22;38556;47.068;15.408;2023-07-29T01:10:13;22.60;99.90
1996;DHT22;38556;47.068;15.408;2023-07-29T01:12:50;22.60;99.90
1996;DHT22;38556;47.068;15.408;2023-07-29T01:15:21;22.60;99.90
1996;DHT22;38556;47.068;15.408;2023-07-29T01:17:52;22.60;99.90
1996;DHT22;38556;47.068;15.408;2023-07-29T01:20:24;22.60;99.90
1996;DHT22;38556;47.068;15.408;2023-07-29T01:22:53;22.60;99.90
1996;DHT22;38556;47.068;15.408;2023-07-29T01:25:21;22.50;99.90
1996;DHT22;38556;47.068;15.408;2023-07-29T01:27:49;22.50;99.90
1996;DHT22;38556;47.068;15.408;2023-07-29T01:30:18;22.40;99.90
1996;DHT22;38556;47.068;15.408;2023-07-29T01:32:50;22.40;99.90
1996;DHT22;38556;47.068;15.408;2023-07-29T01:35:23;22.40;99.90
1996;DHT22;38556;47.068;15.408;2023-07-29T01:37:55;22.40;99.90
1996;DHT22;38556;47.068;15.408;2023-07-29T01:40:28;22.30;99.90
1996;DHT22;38556;47.068;15.408;2023-07-29T01:42:55;22.30;99.90
1996;DHT22;38556;47.068;15.408;2023-07-29T01:45:24;22.30;99.90
1996;DHT22;38556;47.068;15.408;2023-07-29T01:47:52;22.20;99.90
1996;DHT22;38556;47.068;15.408;2023-07-29T01:50:19;22.20;99.90
1996;DHT22;38556;47.068;15.408;2023-07-29T01:52:46;22.20;99.90
1996;DHT22;38556;47.068;15.408;2023-07-29T01:55:14;22.20;99.90
1996;DHT22;38556;47.068;15.408;2023-07-29T01:57:42;22.10;99.90
1996;DHT22;38556;47.068;15.408;2023-07-29T02:00:11;22.10;99.90
1996;DHT22;38556;47.068;15.408;2023-07-29T02:02:39;22.20;99.90
1996;DHT22;38556;47.068;15.408;2023-07-29T02:05:06;22.20;99.90
1996;DHT22;38556;47.068;15.408;2023-07-29T02:07:34;22.10;99.90
1996;DHT22;38556;47.068;15.408;2023-07-29T02:12:28;22.30;99.90
1996;DHT22;38556;47.068;15.408;2023-07-29T02:14:57;22.30;99.90
1996;DHT22;38556;47.068;15.408;2023-07-29T02:17:24;22.30;99.90
1996;DHT22;38556;47.068;15.408;2023-07-29T02:19:52;22.00;99.90
1996;DHT22;38556;47.068;15.408;2023-07-29T02:22:19;21.70;99.90
1996;DHT22;38556;47.068;15.408;2023-07-29T02:24:46;21.60;99.90
1996;DHT22;38556;47.068;15.408;2023-07-29T02:27:13;21.70;99.90
1996;DHT22;38556;47.068;15.408;2023-07-29T02:29:41;21.80;99.90
1996;DHT22;38556;47.068;15.408;2023-07-29T02:32:09;21.90;99.90
1996;DHT22;38556;47.068;15.408;2023-07-29T02:34:36;22.00;99.90
1996;DHT22;38556;47.068;15.408;2023-07-29T02:37:04;22.00;99.90
1996;DHT22;38556;47.068;15.408;2023-07-29T02:39:31;22.00;99.90
1996;DHT22;38556;47.068;15.408;2023-07-29T02:41:58;22.10;99.90
1996;DHT22;38556;47.068;15.408;2023-07-29T02:44:26;22.10;99.90
1996;DHT22;38556;47.068;15.408;2023-07-29T02:46:53;22.00;99.90
1996;DHT22;38556;47.068;15.408;2023-07-29T02:49:23;22.10;99.90
1996;DHT22;38556;47.068;15.408;2023-07-29T02:51:51;22.10;99.90
1996;DHT22;38556;47.068;15.408;2023-07-29T02:54:18;22.10;99.90
1996;DHT22;38556;47.068;15.408;2023-07-29T02:56:45;22.10;99.90
1996;DHT22;38556;47.068;15.408;2023-07-29T02:59:12;22.10;99.90
1996;DHT22;38556;47.068;15.408;2023-07-29T03:01:40;22.00;99.90
1996;DHT22;38556;47.068;15.408;2023-07-29T03:04:07;21.60;99.90
1996;DHT22;38556;47.068;15.408;2023-07-29T03:06:36;21.60;99.90
1996;DHT22;38556;47.068;15.408;2023-07-29T03:09:03;21.70;99.90
1996;DHT22;38556;47.068;15.408;2023-07-29T03:11:31;21.70;99.90
1996;DHT22;38556;47.068;15.408;2023-07-29T03:13:58;21.70;99.90
1996;DHT22;38556;47.068;15.408;2023-07-29T03:16:26;21.80;99.90
1996;DHT22;38556;47.068;15.408;2023-07-29T03:18:53;21.80;99.90
1996;DHT22;38556;47.068;15.408;2023-07-29T03:21:20;21.80;99.90
1996;DHT22;38556;47.068;15.408;2023-07-29T03:23:49;21.80;99.90
1996;DHT22;38556;47.068;15.408;2023-07-29T03:28:44;21.50;99.90
1996;DHT22;38556;47.068;15.408;2023-07-29T03:31:11;21.40;99.90
1996;DHT22;38556;47.068;15.408;2023-07-29T03:33:38;21.50;99.90
1996;DHT22;38556;47.068;15.408;2023-07-29T03:36:05;21.30;99.90
1996;DHT22;38556;47.068;15.408;2023-07-29T03:38:33;21.30;99.90
1996;DHT22;38556;47.068;15.408;2023-07-29T03:41:02;21.50;99.90
1996;DHT22;38556;47.068;15.408;2023-07-29T03:43:29;21.60;99.90
1996;DHT22;38556;47.068;15.408;2023-07-29T03:45:57;21.50;99.90
1996;DHT22;38556;47.068;15.408;2023-07-29T03:48:24;21.50;99.90
1996;DHT22;38556;47.068;15.408;2023-07-29T03:50:51;21.50;99.90
1996;DHT22;38556;47.068;15.408;2023-07-29T03:53:18;21.60;99.90
1996;DHT22;38556;47.068;15.408;2023-07-29T03:55:45;21.60;99.90
1996;DHT22;38556;47.068;15.408;2023-07-29T03:58:14;21.70;99.90
1996;DHT22;38556;47.068;15.408;2023-07-29T04:00:41;21.70;99.90
1996;DHT22;38556;47.068;15.408;2023-07-29T04:03:09;21.70;99.90
1996;DHT22;38556;47.068;15.408;2023-07-29T04:05:36;21.80;99.90
1996;DHT22;38556;47.068;15.408;2023-07-29T04:08:03;21.80;99.90
1996;DHT22;38556;47.068;15.408;2023-07-29T04:10:30;21.90;99.90
1996;DHT22;38556;47.068;15.408;2023-07-29T04:12:57;21.90;99.90
1996;DHT22;38556;47.068;15.408;2023-07-29T04:15:26;21.90;99.90
1996;DHT22;38556;47.068;15.408;2023-07-29T04:17:54;21.90;99.90
1996;DHT22;38556;47.068;15.408;2023-07-29T04:20:21;22.00;99.90
1996;DHT22;38556;47.068;15.408;2023-07-29T04:22:48;22.00;99.90
1996;DHT22;38556;47.068;15.408;2023-07-29T04:25:15;22.00;99.90
1996;DHT22;38556;47.068;15.408;2023-07-29T04:27:43;22.00;99.90
1996;DHT22;38556;47.068;15.408;2023-07-29T04:30:10;22.00;99.90
1996;DHT22;38556;47.068;15.408;2023-07-29T04:32:39;22.10;99.90
1996;DHT22;38556;47.068;15.408;2023-07-29T04:35:08;22.10;99.90
1996;DHT22;38556;47.068;15.408;2023-07-29T04:37:36;22.10;99.90
1996;DHT22;38556;47.068;15.408;2023-07-29T04:40:03;22.10;99.90
1996;DHT22;38556;47.068;15.408;2023-07-29T04:42:31;22.20;99.90
1996;DHT22;38556;47.068;15.408;2023-07-29T04:44:58;22.20;99.90
1996;DHT22;38556;47.068;15.408;2023-07-29T04:47:25;22.20;99.90
1996;DHT22;38556;47.068;15.408;2023-07-29T04:49:54;22.20;99.90
1996;DHT22;38556;47.068;15.408;2023-07-29T04:52:21;22.10;99.90
1996;DHT22;38556;47.068;15.408;2023-07-29T04:54:48;22.20;99.90
1996;DHT22;38556;47.068;15.408;2023-07-29T04:57:15;22.10;99.90
1996;DHT22;38556;47.068;15.408;2023-07-29T04:59:42;22.20;99.90
1996;DHT22;38556;47.068;15.408;2023-07-29T05:02:09;22.00;99.90
1996;DHT22;38556;47.068;15.408;2023-07-29T05:04:37;22.00;99.90
1996;DHT22;38556;47.068;15.408;2023-07-29T05:07:06;22.00;99.90
1996;DHT22;38556;47.068;15.408;2023-07-29T05:09:33;21.70;99.90
1996;DHT22;38556;47.068;15.408;2023-07-29T05:12:01;21.50;99.90
1996;DHT22;38556;47.068;15.408;2023-07-29T05:14:28;21.50;99.90
1996;DHT22;38556;47.068;15.408;2023-07-29T05:16:55;21.50;99.90
1996;DHT22;38556;47.068;15.408;2023-07-29T05:19:22;21.50;99.90
1996;DHT22;38556;47.068;15.408;2023-07-29T05:21:49;21.60;99.90
1996;DHT22;38556;47.068;15.408;2023-07-29T05:24:18;21.50;99.90
1996;DHT22;38556;47.068;15.408;2023-07-29T05:29:12;21.30;99.90
1996;DHT22;38556;47.068;15.408;2023-07-29T05:31:40;21.30;99.90
1996;DHT22;38556;47.068;15.408;2023-07-29T05:34:07;21.50;99.90
1996;DHT22;38556;47.068;15.408;2023-07-29T05:36:34;21.60;99.90
1996;DHT22;38556;47.068;15.408;2023-07-29T05:39:02;17.90;99.90
1996;DHT22;38556;47.068;15.408;2023-07-29T05:41:30;21.70;99.90
1996;DHT22;38556;47.068;15.408;2023-07-29T05:43:57;21.80;99.90
1996;DHT22;38556;47.068;15.408;2023-07-29T05:46:25;21.80;99.90
1996;DHT22;38556;47.068;15.408;2023-07-29T05:48:52;21.70;99.90
1996;DHT22;38556;47.068;15.408;2023-07-29T05:51:20;21.70;99.90
1996;DHT22;38556;47.068;15.408;2023-07-29T05:53:47;21.50;99.90
1996;DHT22;38556;47.068;15.408;2023-07-29T05:56:14;21.30;99.90
1996;DHT22;38556;47.068;15.408;2023-07-29T05:58:43;21.40;99.90
1996;DHT22;38556;47.068;15.408;2023-07-29T06:01:10;21.30;99.90
1996;DHT22;38556;47.068;15.408;2023-07-29T06:03:37;21.30;99.90
1996;DHT22;38556;47.068;15.408;2023-07-29T06:06:06;21.50;99.90
1996;DHT22;38556;47.068;15.408;2023-07-29T06:11:01;21.50;99.90
1996;DHT22;38556;47.068;15.408;2023-07-29T06:13:28;21.50;99.90
1996;DHT22;38556;47.068;15.408;2023-07-29T06:15:57;21.70;99.90
1996;DHT22;38556;47.068;15.408;2023-07-29T06:18:24;21.80;99.90
1996;DHT22;38556;47.068;15.408;2023-07-29T06:20:52;21.90;99.90
1996;DHT22;38556;47.068;15.408;2023-07-29T06:23:19;22.00;99.90
1996;DHT22;38556;47.068;15.408;2023-07-29T06:25:47;22.10;99.90
1996;DHT22;38556;47.068;15.408;2023-07-29T06:28:14;22.20;99.90
1996;DHT22;38556;47.068;15.408;2023-07-29T06:30:41;22.20;99.90
1996;DHT22;38556;47.068;15.408;2023-07-29T06:33:10;22.30;99.90
1996;DHT22;38556;47.068;15.408;2023-07-29T06:35:38;22.60;99.90
1996;DHT22;38556;47.068;15.408;2023-07-29T06:38:05;22.70;99.90
1996;DHT22;38556;47.068;15.408;2023-07-29T06:40:32;22.80;99.90
1996;DHT22;38556;47.068;15.408;2023-07-29T06:42:59;23.00;99.90
1996;DHT22;38556;47.068;15.408;2023-07-29T06:45:27;23.10;99.90
1996;DHT22;38556;47.068;15.408;2023-07-29T06:47:54;23.20;99.90
1996;DHT22;38556;47.068;15.408;2023-07-29T06:50:23;23.30;99.90
1996;DHT22;38556;47.068;15.408;2023-07-29T06:52:51;23.40;99.90
1996;DHT22;38556;47.068;15.408;2023-07-29T06:55:18;23.40;99.90
1996;DHT22;38556;47.068;15.408;2023-07-29T06:57:45;23.60;99.90
1996;DHT22;38556;47.068;15.408;2023-07-29T07:00:13;23.70;99.90
1996;DHT22;38556;47.068;15.408;2023-07-29T07:02:41;23.90;99.90
1996;DHT22;38556;47.068;15.408;2023-07-29T07:05:08;24.00;99.90
1996;DHT22;38556;47.068;15.408;2023-07-29T07:07:37;24.10;99.90
1996;DHT22;38556;47.068;15.408;2023-07-29T07:10:05;24.20;99.90
1996;DHT22;38556;47.068;15.408;2023-07-29T07:12:33;24.20;99.90
1996;DHT22;38556;47.068;15.408;2023-07-29T07:15:00;24.30;99.90
1996;DHT22;38556;47.068;15.408;2023-07-29T07:17:28;24.30;99.90
1996;DHT22;38556;47.068;15.408;2023-07-29T07:19:55;24.40;99.90
1996;DHT22;38556;47.068;15.408;2023-07-29T07:22:22;24.40;99.90
1996;DHT22;38556;47.068;15.408;2023-07-29T07:24:51;24.50;99.90
1996;DHT22;38556;47.068;15.408;2023-07-29T07:27:18;24.50;99.90
1996;DHT22;38556;47.068;15.408;2023-07-29T07:29:45;24.60;99.90
1996;DHT22;38556;47.068;15.408;2023-07-29T07:32:13;24.60;99.90
1996;DHT22;38556;47.068;15.408;2023-07-29T07:34:40;24.70;99.90
1996;DHT22;38556;47.068;15.408;2023-07-29T07:37:07;24.80;99.90
1996;DHT22;38556;47.068;15.408;2023-07-29T07:39:35;24.70;99.90
1996;DHT22;38556;47.068;15.408;2023-07-29T07:42:04;24.70;99.90
1996;DHT22;38556;47.068;15.408;2023-07-29T07:44:31;25.00;99.90
1996;DHT22;38556;47.068;15.408;2023-07-29T07:46:59;25.00;99.90
1996;DHT22;38556;47.068;15.408;2023-07-29T07:49:26;25.00;99.90
1996;DHT22;38556;47.068;15.408;2023-07-29T07:51:53;25.10;99.90
1996;DHT22;38556;47.068;15.408;2023-07-29T07:54:20;25.30;99.90
1996;DHT22;38556;47.068;15.408;2023-07-29T07:56:48;25.40;99.90
1996;DHT22;38556;47.068;15.408;2023-07-29T07:59:16;25.50;99.90
1996;DHT22;38556;47.068;15.408;2023-07-29T08:01:44;25.60;99.90
1996;DHT22;38556;47.068;15.408;2023-07-29T08:04:11;25.80;99.70
1996;DHT22;38556;47.068;15.408;2023-07-29T08:06:39;25.80;99.40
1996;DHT22;38556;47.068;15.408;2023-07-29T08:09:06;25.90;99.70
1996;DHT22;38556;47.068;15.408;2023-07-29T08:11:33;26.00;99.30
1996;DHT22;38556;47.068;15.408;2023-07-29T08:14:01;26.10;98.50
1996;DHT22;38556;47.068;15.408;2023-07-29T08:16:29;26.10;98.00
1996;DHT22;38556;47.068;15.408;2023-07-29T08:18:57;26.10;98.10
1996;DHT22;38556;47.068;15.408;2023-07-29T08:21:24;26.10;97.90
1996;DHT22;38556;47.068;15.408;2023-07-29T08:23:51;26.00;97.40
1996;DHT22;38556;47.068;15.408;2023-07-29T08:26:18;25.90;97.20
1996;DHT22;38556;47.068;15.408;2023-07-29T08:28:45;25.80;98.00
1996;DHT22;38556;47.068;15.408;2023-07-29T08:31:13;25.90;98.00
1996;DHT22;38556;47.068;15.408;2023-07-29T08:33:41;26.10;97.10
1996;DHT22;38556;47.068;15.408;2023-07-29T08:36:08;26.10;96.90
1996;DHT22;38556;47.068;15.408;2023-07-29T08:38:36;26.00;96.00
1996;DHT22;38556;47.068;15.408;2023-07-29T08:41:13;26.00;96.10
1996;DHT22;38556;47.068;15.408;2023-07-29T08:43:56;26.00;95.70
1996;DHT22;38556;47.068;15.408;2023-07-29T08:46:26;26.00;95.50
1996;DHT22;38556;47.068;15.408;2023-07-29T08:48:55;26.00;95.60
1996;DHT22;38556;47.068;15.408;2023-07-29T08:51:23;26.10;95.30
1996;DHT22;38556;47.068;15.408;2023-07-29T08:53:51;26.10;95.20
1996;DHT22;38556;47.068;15.408;2023-07-29T08:56:19;26.10;95.20
1996;DHT22;38556;47.068;15.408;2023-07-29T08:58:46;26.10;95.90
1996;DHT22;38556;47.068;15.408;2023-07-29T09:01:15;26.30;96.40
1996;DHT22;38556;47.068;15.408;2023-07-29T09:03:42;26.20;96.10
1996;DHT22;38556;47.068;15.408;2023-07-29T09:06:12;26.00;95.30
1996;DHT22;38556;47.068;15.408;2023-07-29T09:08:40;26.10;95.60
1996;DHT22;38556;47.068;15.408;2023-07-29T09:11:08;26.00;96.50
1996;DHT22;38556;47.068;15.408;2023-07-29T09:13:35;26.00;96.60
1996;DHT22;38556;47.068;15.408;2023-07-29T09:16:01;26.20;96.60
1996;DHT22;38556;47.068;15.408;2023-07-29T09:18:28;26.20;97.00
1996;DHT22;38556;47.068;15.408;2023-07-29T09:20:59;26.40;97.20
1996;DHT22;38556;47.068;15.408;2023-07-29T09:23:27;26.50;97.30
1996;DHT22;38556;47.068;15.408;2023-07-29T09:28:33;26.30;95.50
1996;DHT22;38556;47.068;15.408;2023-07-29T09:31:01;26.30;96.00
1996;DHT22;38556;47.068;15.408;2023-07-29T09:33:28;26.40;96.40
1996;DHT22;38556;47.068;15.408;2023-07-29T09:35:57;26.60;95.30
1996;DHT22;38556;47.068;15.408;2023-07-29T09:38:29;26.60;94.60
1996;DHT22;38556;47.068;15.408;2023-07-29T09:40:57;26.70;94.10
1996;DHT22;38556;47.068;15.408;2023-07-29T09:43:26;26.70;93.00
1996;DHT22;38556;47.068;15.408;2023-07-29T09:45:55;26.70;92.60
1996;DHT22;38556;47.068;15.408;2023-07-29T09:48:26;26.70;93.00
1996;DHT22;38556;47.068;15.408;2023-07-29T09:50:54;26.70;92.90
1996;DHT22;38556;47.068;15.408;2023-07-29T09:53:22;26.70;92.90
1996;DHT22;38556;47.068;15.408;2023-07-29T09:55:50;26.90;91.60
1996;DHT22;38556;47.068;15.408;2023-07-29T09:58:26;26.90;91.20
1996;DHT22;38556;47.068;15.408;2023-07-29T10:00:54;26.80;91.10
1996;DHT22;38556;47.068;15.408;2023-07-29T10:03:22;26.70;92.40
1996;DHT22;38556;47.068;15.408;2023-07-29T10:05:49;26.90;90.60
1996;DHT22;38556;47.068;15.408;2023-07-29T10:08:18;26.90;89.90
1996;DHT22;38556;47.068;15.408;2023-07-29T10:10:46;27.00;87.90
1996;DHT22;38556;47.068;15.408;2023-07-29T10:13:15;27.10;88.20
1996;DHT22;38556;47.068;15.408;2023-07-29T10:15:44;27.00;88.40
1996;DHT22;38556;47.068;15.408;2023-07-29T10:18:12;27.00;88.50
1996;DHT22;38556;47.068;15.408;2023-07-29T10:20:41;26.90;89.40
1996;DHT22;38556;47.068;15.408;2023-07-29T10:23:10;26.90;89.90
1996;DHT22;38556;47.068;15.408;2023-07-29T10:25:39;26.80;90.30
1996;DHT22;38556;47.068;15.408;2023-07-29T10:28:12;26.90;90.70
1996;DHT22;38556;47.068;15.408;2023-07-29T10:30:41;27.10;91.40
1996;DHT22;38556;47.068;15.408;2023-07-29T10:33:08;27.10;91.00
1996;DHT22;38556;47.068;15.408;2023-07-29T10:35:37;27.30;90.00
1996;DHT22;38556;47.068;15.408;2023-07-29T10:38:06;27.20;90.40
1996;DHT22;38556;47.068;15.408;2023-07-29T10:40:45;27.40;90.80
1996;DHT22;38556;47.068;15.408;2023-07-29T10:43:19;27.40;91.00
1996;DHT22;38556;47.068;15.408;2023-07-29T10:45:48;27.30;90.40
1996;DHT22;38556;47.068;15.408;2023-07-29T10:48:39;27.50;90.60
1996;DHT22;38556;47.068;15.408;2023-07-29T10:51:22;27.30;89.50
1996;DHT22;38556;47.068;15.408;2023-07-29T10:53:52;27.60;90.60
1996;DHT22;38556;47.068;15.408;2023-07-29T10:56:31;27.50;90.00
1996;DHT22;38556;47.068;15.408;2023-07-29T11:01:53;27.50;90.10
1996;DHT22;38556;47.068;15.408;2023-07-29T11:04:24;27.70;90.50
1996;DHT22;38556;47.068;15.408;2023-07-29T11:07:21;27.70;90.80
1996;DHT22;38556;47.068;15.408;2023-07-29T11:09:59;27.80;90.80
1996;DHT22;38556;47.068;15.408;2023-07-29T11:12:44;27.80;91.50
1996;DHT22;38556;47.068;15.408;2023-07-29T11:15:18;27.50;90.50
1996;DHT22;38556;47.068;15.408;2023-07-29T11:17:48;27.50;90.70
1996;DHT22;38556;47.068;15.408;2023-07-29T11:20:17;27.70;90.70
1996;DHT22;38556;47.068;15.408;2023-07-29T11:22:45;27.90;88.30
1996;DHT22;38556;47.068;15.408;2023-07-29T11:25:13;28.00;86.30
1996;DHT22;38556;47.068;15.408;2023-07-29T11:27:41;27.90;87.20
1996;DHT22;38556;47.068;15.408;2023-07-29T11:30:11;27.90;90.30
1996;DHT22;38556;47.068;15.408;2023-07-29T11:32:39;27.90;90.00
1996;DHT22;38556;47.068;15.408;2023-07-29T11:35:10;28.00;88.40
1996;DHT22;38556;47.068;15.408;2023-07-29T11:37:39;27.90;88.50
1996;DHT22;38556;47.068;15.408;2023-07-29T11:40:07;27.90;89.00
1996;DHT22;38556;47.068;15.408;2023-07-29T11:42:37;27.80;90.30
1996;DHT22;38556;47.068;15.408;2023-07-29T11:45:05;27.80;89.20
1996;DHT22;38556;47.068;15.408;2023-07-29T11:47:34;27.90;90.30
1996;DHT22;38556;47.068;15.408;2023-07-29T11:50:04;27.90;90.60
1996;DHT22;38556;47.068;15.408;2023-07-29T11:52:33;28.00;90.80
1996;DHT22;38556;47.068;15.408;2023-07-29T11:55:02;28.20;91.10
1996;DHT22;38556;47.068;15.408;2023-07-29T11:57:29;28.30;90.70
1996;DHT22;38556;47.068;15.408;2023-07-29T11:59:57;28.30;91.60
1996;DHT22;38556;47.068;15.408;2023-07-29T12:02:25;28.40;90.10
1996;DHT22;38556;47.068;15.408;2023-07-29T12:04:53;28.50;91.30
1996;DHT22;38556;47.068;15.408;2023-07-29T12:07:20;28.60;91.20
1996;DHT22;38556;47.068;15.408;2023-07-29T12:09:50;28.60;88.90
1996;DHT22;38556;47.068;15.408;2023-07-29T12:12:18;28.70;90.00
1996;DHT22;38556;47.068;15.408;2023-07-29T12:14:46;28.90;90.30
1996;DHT22;38556;47.068;15.408;2023-07-29T12:17:13;28.80;90.80
1996;DHT22;38556;47.068;15.408;2023-07-29T12:19:41;28.80;90.60
1996;DHT22;38556;47.068;15.408;2023-07-29T12:22:10;28.60;90.10
1996;DHT22;38556;47.068;15.408;2023-07-29T12:24:40;28.70;89.90
1996;DHT22;38556;47.068;15.408;2023-07-29T12:27:13;28.80;90.40
1996;DHT22;38556;47.068;15.408;2023-07-29T12:29:44;28.80;90.60
1996;DHT22;38556;47.068;15.408;2023-07-29T12:32:14;28.80;91.10
1996;DHT22;38556;47.068;15.408;2023-07-29T12:34:42;29.10;91.60
1996;DHT22;38556;47.068;15.408;2023-07-29T12:37:09;29.20;91.00
1996;DHT22;38556;47.068;15.408;2023-07-29T12:39:40;29.30;91.70
1996;DHT22;38556;47.068;15.408;2023-07-29T12:42:08;29.30;91.20
1996;DHT22;38556;47.068;15.408;2023-07-29T12:44:37;29.20;90.50
1996;DHT22;38556;47.068;15.408;2023-07-29T12:47:05;29.20;90.90
1996;DHT22;38556;47.068;15.408;2023-07-29T12:49:35;29.10;90.70
1996;DHT22;38556;47.068;15.408;2023-07-29T12:52:02;28.90;91.00
1996;DHT22;38556;47.068;15.408;2023-07-29T12:54:29;29.00;90.00
1996;DHT22;38556;47.068;15.408;2023-07-29T12:56:56;29.00;90.50
1996;DHT22;38556;47.068;15.408;2023-07-29T12:59:24;28.80;90.00
1996;DHT22;38556;47.068;15.408;2023-07-29T13:01:52;28.80;89.00
1996;DHT22;38556;47.068;15.408;2023-07-29T13:04:20;28.80;89.00
1996;DHT22;38556;47.068;15.408;2023-07-29T13:06:47;28.80;90.10
1996;DHT22;38556;47.068;15.408;2023-07-29T13:09:14;28.50;90.40
1996;DHT22;38556;47.068;15.408;2023-07-29T13:11:41;28.40;91.00
1996;DHT22;38556;47.068;15.408;2023-07-29T13:14:09;27.80;94.20
1996;DHT22;38556;47.068;15.408;2023-07-29T13:16:36;27.60;94.80
1996;DHT22;38556;47.068;15.408;2023-07-29T13:19:05;27.60;94.40
1996;DHT22;38556;47.068;15.408;2023-07-29T13:21:32;27.80;96.60
1996;DHT22;38556;47.068;15.408;2023-07-29T13:24:00;28.00;98.20
1996;DHT22;38556;47.068;15.408;2023-07-29T13:26:27;28.00;98.70
1996;DHT22;38556;47.068;15.408;2023-07-29T13:28:54;28.10;99.30
1996;DHT22;38556;47.068;15.408;2023-07-29T13:31:22;27.80;98.90
1996;DHT22;38556;47.068;15.408;2023-07-29T13:33:49;27.30;99.90
1996;DHT22;38556;47.068;15.408;2023-07-29T13:36:18;26.50;97.80
1996;DHT22;38556;47.068;15.408;2023-07-29T13:38:45;26.40;99.00
1996;DHT22;38556;47.068;15.408;2023-07-29T13:41:12;26.40;97.50
1996;DHT22;38556;47.068;15.408;2023-07-29T13:43:39;26.70;99.80
1996;DHT22;38556;47.068;15.408;2023-07-29T13:46:07;27.00;95.50
1996;DHT22;38556;47.068;15.408;2023-07-29T13:48:33;26.90;95.70
1996;DHT22;38556;47.068;15.408;2023-07-29T13:51:02;27.00;95.00
1996;DHT22;38556;47.068;15.408;2023-07-29T13:53:30;27.30;93.70
1996;DHT22;38556;47.068;15.408;2023-07-29T13:55:57;27.50;94.20
1996;DHT22;38556;47.068;15.408;2023-07-29T13:58:25;27.50;94.40
1996;DHT22;38556;47.068;15.408;2023-07-29T14:00:52;27.90;95.20
1996;DHT22;38556;47.068;15.408;2023-07-29T14:03:20;28.10;95.60
1996;DHT22;38556;47.068;15.408;2023-07-29T14:05:47;28.40;95.30
1996;DHT22;38556;47.068;15.408;2023-07-29T15:37:13;31.90;84.50
1996;DHT22;38556;47.068;15.408;2023-07-29T15:39:41;32.00;84.90
1996;DHT22;38556;47.068;15.408;2023-07-29T15:42:08;32.20;84.30
1996;DHT22;38556;47.068;15.408;2023-07-29T15:44:35;32.40;83.30
1996;DHT22;38556;47.068;15.408;2023-07-29T15:47:03;32.60;82.30
1996;DHT22;38556;47.068;15.408;2023-07-29T15:49:30;32.60;84.60
1996;DHT22;38556;47.068;15.408;2023-07-29T15:51:58;32.80;82.70
1996;DHT22;38556;47.068;15.408;2023-07-29T15:54:26;33.00;81.90
1996;DHT22;38556;47.068;15.408;2023-07-29T15:56:54;33.10;80.00
1996;DHT22;38556;47.068;15.408;2023-07-29T15:59:21;33.00;79.50
1996;DHT22;38556;47.068;15.408;2023-07-29T16:01:49;33.10;82.30
1996;DHT22;38556;47.068;15.408;2023-07-29T16:04:17;33.30;81.50
1996;DHT22;38556;47.068;15.408;2023-07-29T16:06:44;33.40;80.60
1996;DHT22;38556;47.068;15.408;2023-07-29T16:09:11;33.50;81.70
1996;DHT22;38556;47.068;15.408;2023-07-29T16:11:40;33.70;80.60
1996;DHT22;38556;47.068;15.408;2023-07-29T16:14:07;33.80;79.50
1996;DHT22;38556;47.068;15.408;2023-07-29T16:16:35;33.90;78.70
1996;DHT22;38556;47.068;15.408;2023-07-29T18:06:51;28.50;90.90
1996;DHT22;38556;47.068;15.408;2023-07-29T18:09:18;28.60;90.90
1996;DHT22;38556;47.068;15.408;2023-07-29T18:11:46;28.50;90.70
1996;DHT22;38556;47.068;15.408;2023-07-29T18:14:13;28.30;90.70
1996;DHT22;38556;47.068;15.408;2023-07-29T18:19:08;28.20;91.30
1996;DHT22;38556;47.068;15.408;2023-07-29T18:21:37;28.20;91.10
1996;DHT22;38556;47.068;15.408;2023-07-29T18:24:05;28.20;90.70
1996;DHT22;38556;47.068;15.408;2023-07-29T18:26:32;28.20;90.80
1996;DHT22;38556;47.068;15.408;2023-07-29T18:29:00;28.20;90.90
1996;DHT22;38556;47.068;15.408;2023-07-29T18:31:28;28.20;90.90
1996;DHT22;38556;47.068;15.408;2023-07-29T18:33:56;28.20;91.10
1996;DHT22;38556;47.068;15.408;2023-07-29T18:36:23;28.10;91.40
1996;DHT22;38556;47.068;15.408;2023-07-29T18:38:52;28.10;91.70
1996;DHT22;38556;47.068;15.408;2023-07-29T18:43:47;27.30;92.40
1996;DHT22;38556;47.068;15.408;2023-07-29T18:46:24;26.90;93.00
1996;DHT22;38556;47.068;15.408;2023-07-29T18:48:54;26.80;93.50
1996;DHT22;38556;47.068;15.408;2023-07-29T18:51:23;26.70;93.70
1996;DHT22;38556;47.068;15.408;2023-07-29T18:53:53;26.90;93.60
1996;DHT22;38556;47.068;15.408;2023-07-29T18:56:22;27.00;93.40
1996;DHT22;38556;47.068;15.408;2023-07-29T19:01:19;26.80;93.40
1996;DHT22;38556;47.068;15.408;2023-07-29T19:03:49;26.90;93.50
1996;DHT22;38556;47.068;15.408;2023-07-29T19:06:18;27.10;93.40
1996;DHT22;38556;47.068;15.408;2023-07-29T19:08:47;24.70;92.30
1996;DHT22;38556;47.068;15.408;2023-07-29T19:11:18;27.10;93.30
1996;DHT22;38556;47.068;15.408;2023-07-29T19:13:46;27.10;93.30
1996;DHT22;38556;47.068;15.408;2023-07-29T19:16:15;27.00;93.10